Time;durP1;ratioP1;P1;durP2;ratioP2;P2;SDS_P1;SDS_P2;PMS_P1;PMS_P2;Temp;Humidity;BMP_temperature;BMP_pressure;BME280_temperature;BME280_humidity;BME280_pressure;Samples;Min_cycle;Max_cycle;Signal;HPM_P1;HPM_P2
2021/08/15 00:01:04;;;;;;;1.77;1.02;;;;;;;;;;5006093;28;20098;-64
2021/08/15 00:03:32;;;;;;;1.27;1.20;;;;;;;;;;4996822;28;20077;-64
2021/08/15 00:05:58;;;;;;;4.43;1.42;;;;;;;;;;5012636;28;20046;-64
2021/08/15 00:08:25;;;;;;;3.13;1.67;;;;;;;;;;5009755;28;20052;-64
2021/08/15 00:10:52;;;;;;;1.67;0.95;;;;;;;;;;5011103;28;20046;-64
2021/08/15 00:13:19;;;;;;;1.38;1.33;;;;;;;;;;5005629;28;20077;-64
2021/08/15 00:15:45;;;;;;;1.58;1.20;;;;;;;;;;5005138;28;20105;-65
2021/08/15 00:18:12;;;;;;;1.20;1.10;;;;;;;;;;5008420;28;20042;-64
2021/08/15 00:20:39;;;;;;;1.13;1.10;;;;;;;;;;5009297;28;20042;-65
2021/08/15 00:23:06;;;;;;;4.68;1.60;;;;;;;;;;5008321;28;20049;-64
2021/08/15 00:25:32;;;;;;;1.55;1.13;;;;;;;;;;5010628;28;20038;-65
2021/08/15 00:27:59;;;;;;;1.02;1.00;;;;;;;;;;5009144;28;20060;-65
2021/08/15 00:30:26;;;;;;;4.30;1.20;;;;;;;;;;5010226;28;20042;-64
2021/08/15 00:32:53;;;;;;;1.27;1.27;;;;;;;;;;5008521;28;20088;-65
2021/08/15 00:35:19;;;;;;;1.40;1.30;;;;;;;;;;5007157;28;20041;-65
2021/08/15 00:37:46;;;;;;;1.45;1.40;;;;;;;;;;5011141;28;20057;-65
2021/08/15 00:40:13;;;;;;;1.88;1.10;;;;;;;;;;4999148;28;20430;-65
2021/08/15 00:42:40;;;;;;;1.52;1.30;;;;;;;;;;5010984;28;20065;-65
2021/08/15 00:45:07;;;;;;;2.15;1.95;;;;;;;;;;5008582;28;20044;-65
2021/08/15 00:47:34;;;;;;;1.40;1.10;;;;;;;;;;5002618;28;20092;-65
2021/08/15 00:50:02;;;;;;;10.68;1.52;;;;;;;;;;5011750;28;20042;-65
2021/08/15 00:52:29;;;;;;;1.90;1.05;;;;;;;;;;5009570;28;20054;-65
2021/08/15 00:54:57;;;;;;;2.60;1.00;;;;;;;;;;5006637;28;20117;-65
2021/08/15 00:57:25;;;;;;;3.22;1.17;;;;;;;;;;5006906;28;20042;-65
2021/08/15 00:59:52;;;;;;;1.70;1.30;;;;;;;;;;5002022;28;20038;-65
2021/08/15 01:02:18;;;;;;;3.63;1.10;;;;;;;;;;5010065;28;20085;-66
2021/08/15 01:04:45;;;;;;;1.10;1.00;;;;;;;;;;5007373;28;20060;-65
2021/08/15 01:07:13;;;;;;;2.45;1.00;;;;;;;;;;5010303;28;20033;-65
2021/08/15 01:09:39;;;;;;;1.75;1.65;;;;;;;;;;5007710;28;20089;-65
2021/08/15 01:12:06;;;;;;;2.35;1.33;;;;;;;;;;5008581;28;20049;-65
2021/08/15 01:14:33;;;;;;;3.45;1.60;;;;;;;;;;5007131;28;20398;-65
2021/08/15 01:17:00;;;;;;;1.70;1.20;;;;;;;;;;5008859;28;20467;-65
2021/08/15 01:19:28;;;;;;;1.63;1.35;;;;;;;;;;5009791;28;20421;-65
2021/08/15 01:21:55;;;;;;;1.65;1.33;;;;;;;;;;5010023;28;20513;-65
2021/08/15 01:24:22;;;;;;;2.75;1.50;;;;;;;;;;5009989;28;20076;-65
2021/08/15 01:26:49;;;;;;;1.13;1.00;;;;;;;;;;5009640;28;20038;-66
2021/08/15 01:29:18;;;;;;;1.88;1.20;;;;;;;;;;5010445;28;20064;-65
2021/08/15 01:31:44;;;;;;;1.25;1.20;;;;;;;;;;5004234;28;20034;-65
2021/08/15 01:34:11;;;;;;;5.93;1.60;;;;;;;;;;5005756;28;20613;-65
2021/08/15 01:36:38;;;;;;;1.70;1.50;;;;;;;;;;5006469;28;20044;-66
2021/08/15 01:39:05;;;;;;;2.55;1.23;;;;;;;;;;4996766;28;20047;-66
2021/08/15 01:41:32;;;;;;;3.95;1.20;;;;;;;;;;5003719;28;20045;-65
2021/08/15 01:44:00;;;;;;;1.92;1.42;;;;;;;;;;5007563;28;20368;-65
2021/08/15 01:46:27;;;;;;;3.88;1.30;;;;;;;;;;5009767;28;20546;-65
2021/08/15 01:48:54;;;;;;;1.55;1.38;;;;;;;;;;5008809;28;20044;-65
2021/08/15 01:51:21;;;;;;;3.45;1.35;;;;;;;;;;5008157;28;20046;-66
2021/08/15 01:53:49;;;;;;;4.20;2.00;;;;;;;;;;5002948;28;20389;-66
2021/08/15 01:56:17;;;;;;;1.52;1.08;;;;;;;;;;5003532;28;20604;-65
2021/08/15 01:58:43;;;;;;;4.63;1.40;;;;;;;;;;5009341;28;20374;-65
2021/08/15 02:01:20;;;;;;;1.40;1.30;;;;;;;;;;5009103;28;20486;-66
2021/08/15 02:03:48;;;;;;;2.33;1.23;;;;;;;;;;4993106;28;20038;-65
2021/08/15 02:06:15;;;;;;;2.50;1.45;;;;;;;;;;5007946;28;20036;-65
2021/08/15 02:08:41;;;;;;;1.20;1.08;;;;;;;;;;5002148;28;20394;-66
2021/08/15 02:11:08;;;;;;;1.30;1.20;;;;;;;;;;5009404;28;20041;-65
2021/08/15 02:13:35;;;;;;;3.53;1.23;;;;;;;;;;5008376;28;20401;-65
2021/08/15 02:16:02;;;;;;;3.05;1.48;;;;;;;;;;5005568;28;20441;-66
2021/08/15 02:18:29;;;;;;;4.45;1.92;;;;;;;;;;5003738;28;20061;-66
2021/08/15 02:20:55;;;;;;;1.40;1.40;;;;;;;;;;5008383;28;20026;-66
2021/08/15 02:23:22;;;;;;;1.75;1.65;;;;;;;;;;5006822;28;20041;-66
2021/08/15 02:25:49;;;;;;;4.72;2.28;;;;;;;;;;5007229;28;20232;-66
2021/08/15 02:28:16;;;;;;;1.42;1.33;;;;;;;;;;5009083;28;20133;-66
2021/08/15 02:30:43;;;;;;;1.88;1.77;;;;;;;;;;5001667;28;20038;-66
2021/08/15 02:33:10;;;;;;;1.50;1.40;;;;;;;;;;4998681;28;20494;-65
2021/08/15 02:35:36;;;;;;;6.82;1.80;;;;;;;;;;5008909;28;20042;-66
2021/08/15 02:38:03;;;;;;;2.50;2.30;;;;;;;;;;5007616;28;20046;-66
2021/08/15 02:40:30;;;;;;;2.55;1.42;;;;;;;;;;5001091;28;20080;-66
2021/08/15 02:42:57;;;;;;;5.10;1.50;;;;;;;;;;5006354;28;20470;-66
2021/08/15 02:45:25;;;;;;;3.03;1.50;;;;;;;;;;5012280;28;20126;-66
2021/08/15 02:47:52;;;;;;;2.50;2.30;;;;;;;;;;4998290;28;20502;-65
2021/08/15 02:50:20;;;;;;;1.60;1.50;;;;;;;;;;5009354;28;20030;-66
2021/08/15 02:52:47;;;;;;;4.22;1.50;;;;;;;;;;5011876;28;20041;-66
2021/08/15 02:55:16;;;;;;;3.85;1.70;;;;;;;;;;5006429;28;20038;-66
2021/08/15 02:57:43;;;;;;;1.73;1.63;;;;;;;;;;5010242;28;20426;-66
2021/08/15 03:00:10;;;;;;;4.55;2.05;;;;;;;;;;5014524;28;20116;-65
2021/08/15 03:02:37;;;;;;;3.33;1.40;;;;;;;;;;5010478;28;20482;-65
2021/08/15 03:05:05;;;;;;;2.80;1.30;;;;;;;;;;5011645;28;20038;-63
2021/08/15 03:07:32;;;;;;;4.18;1.20;;;;;;;;;;5018286;28;20048;-66
2021/08/15 03:09:58;;;;;;;2.75;1.45;;;;;;;;;;5005959;28;20050;-66
2021/08/15 03:12:25;;;;;;;2.42;1.88;;;;;;;;;;5011265;28;20053;-66
2021/08/15 03:14:52;;;;;;;1.73;1.60;;;;;;;;;;5006462;28;20506;-66
2021/08/15 03:17:19;;;;;;;2.50;1.30;;;;;;;;;;5003988;28;20034;-66
2021/08/15 03:19:46;;;;;;;4.40;1.33;;;;;;;;;;5012310;28;20034;-66
2021/08/15 03:22:12;;;;;;;3.75;1.80;;;;;;;;;;5010421;28;20505;-66
2021/08/15 03:24:39;;;;;;;2.45;1.40;;;;;;;;;;4993531;28;20039;-66
2021/08/15 03:27:06;;;;;;;3.17;1.67;;;;;;;;;;5011768;28;20034;-66
2021/08/15 03:29:33;;;;;;;3.53;1.30;;;;;;;;;;5010909;28;20038;-66
2021/08/15 03:32:00;;;;;;;3.97;1.50;;;;;;;;;;5007064;28;20046;-66
2021/08/15 03:34:27;;;;;;;2.58;1.40;;;;;;;;;;5010396;28;20045;-66
2021/08/15 03:36:54;;;;;;;2.72;1.90;;;;;;;;;;5003496;28;20049;-66
2021/08/15 03:39:21;;;;;;;1.60;1.50;;;;;;;;;;5012937;28;20049;-66
2021/08/15 03:41:49;;;;;;;1.92;1.05;;;;;;;;;;5002503;28;20132;-66
2021/08/15 03:44:16;;;;;;;1.90;1.67;;;;;;;;;;5010952;28;20053;-66
2021/08/15 03:46:44;;;;;;;1.60;1.38;;;;;;;;;;5010472;28;20053;-66
2021/08/15 03:49:11;;;;;;;4.20;1.83;;;;;;;;;;5011646;28;20381;-66
2021/08/15 03:51:38;;;;;;;2.70;1.27;;;;;;;;;;5009009;28;20072;-66
2021/08/15 03:54:04;;;;;;;1.10;1.10;;;;;;;;;;5008945;28;20133;-66
2021/08/15 03:56:31;;;;;;;4.75;1.50;;;;;;;;;;5006342;28;20056;-66
2021/08/15 03:58:58;;;;;;;2.28;1.63;;;;;;;;;;5009963;28;20046;-66
2021/08/15 04:01:25;;;;;;;1.40;1.20;;;;;;;;;;5009719;28;20065;-66
2021/08/15 04:03:51;;;;;;;2.25;1.30;;;;;;;;;;5003097;28;20041;-66
2021/08/15 04:06:21;;;;;;;1.50;1.40;;;;;;;;;;5008663;28;20045;-66
2021/08/15 04:08:51;;;;;;;1.60;1.50;;;;;;;;;;4998010;28;20092;-66
2021/08/15 04:11:19;;;;;;;1.50;1.40;;;;;;;;;;5010472;28;20083;-66
2021/08/15 04:13:46;;;;;;;2.55;1.73;;;;;;;;;;5000854;28;20026;-66
2021/08/15 04:16:12;;;;;;;6.22;2.08;;;;;;;;;;5011281;28;20429;-66
2021/08/15 04:18:39;;;;;;;2.83;1.50;;;;;;;;;;5009770;28;20038;-66
2021/08/15 04:21:06;;;;;;;2.17;1.73;;;;;;;;;;4994530;28;20085;-66
2021/08/15 04:23:33;;;;;;;2.05;1.48;;;;;;;;;;5005237;28;20046;-66
2021/08/15 04:26:00;;;;;;;3.72;1.88;;;;;;;;;;5002830;28;20046;-66
2021/08/15 04:28:26;;;;;;;4.35;1.63;;;;;;;;;;5004807;28;20134;-66
2021/08/15 04:30:53;;;;;;;4.32;2.20;;;;;;;;;;5009768;28;20112;-66
2021/08/15 04:33:24;;;;;;;3.50;1.52;;;;;;;;;;4993456;28;20138;-66
2021/08/15 04:35:53;;;;;;;3.85;1.70;;;;;;;;;;5011042;28;20046;-66
2021/08/15 04:38:21;;;;;;;2.75;1.67;;;;;;;;;;5009159;28;20092;-66
2021/08/15 04:40:50;;;;;;;5.15;2.38;;;;;;;;;;5011229;28;20053;-66
2021/08/15 04:43:17;;;;;;;2.90;2.50;;;;;;;;;;5008856;28;20034;-66
2021/08/15 04:45:46;;;;;;;4.75;2.63;;;;;;;;;;5009422;28;20062;-67
2021/08/15 04:48:13;;;;;;;2.20;2.05;;;;;;;;;;5002870;28;20100;-66
2021/08/15 04:50:40;;;;;;;2.33;2.20;;;;;;;;;;5003015;28;20042;-66
2021/08/15 04:53:07;;;;;;;4.20;2.20;;;;;;;;;;4994075;28;20050;-66
2021/08/15 04:55:34;;;;;;;3.33;3.10;;;;;;;;;;5011262;28;20464;-66
2021/08/15 04:58:02;;;;;;;1.98;1.88;;;;;;;;;;5011614;28;20960;-66
2021/08/15 05:00:29;;;;;;;5.30;2.17;;;;;;;;;;5010521;28;20046;-66
2021/08/15 05:02:55;;;;;;;2.20;1.98;;;;;;;;;;5009141;28;20041;-66
2021/08/15 05:05:23;;;;;;;7.22;2.35;;;;;;;;;;5003447;28;20042;-66
2021/08/15 05:07:49;;;;;;;4.05;2.00;;;;;;;;;;5008825;28;20046;-66
2021/08/15 05:10:17;;;;;;;2.08;1.60;;;;;;;;;;5009478;28;20046;-66
2021/08/15 05:12:44;;;;;;;5.75;2.17;;;;;;;;;;5006869;28;20046;-66
2021/08/15 05:15:10;;;;;;;4.95;1.67;;;;;;;;;;5009448;28;20043;-66
2021/08/15 05:17:38;;;;;;;5.80;1.85;;;;;;;;;;5009038;28;20045;-66
2021/08/15 05:20:05;;;;;;;3.55;1.83;;;;;;;;;;5008009;28;20037;-66
2021/08/15 05:22:32;;;;;;;2.45;1.20;;;;;;;;;;5010230;28;20379;-66
2021/08/15 05:24:58;;;;;;;4.13;2.05;;;;;;;;;;5003137;28;20049;-66
2021/08/15 05:27:25;;;;;;;7.03;2.15;;;;;;;;;;5005592;28;20117;-66
2021/08/15 05:29:52;;;;;;;2.40;2.17;;;;;;;;;;5003705;28;20482;-66
2021/08/15 05:32:19;;;;;;;2.25;2.10;;;;;;;;;;5002932;28;20485;-66
2021/08/15 05:34:45;;;;;;;4.82;1.73;;;;;;;;;;4996999;28;20062;-66
2021/08/15 05:37:12;;;;;;;2.22;2.03;;;;;;;;;;5008625;28;20569;-66
2021/08/15 05:39:39;;;;;;;4.13;2.35;;;;;;;;;;5006918;28;20053;-63
2021/08/15 05:42:05;;;;;;;3.45;1.80;;;;;;;;;;4997429;28;20050;-39
2021/08/15 05:44:32;;;;;;;5.65;1.83;;;;;;;;;;5003761;28;20049;-40
2021/08/15 05:47:03;;;;;;;2.40;1.80;;;;;;;;;;4998077;28;20089;-39
2021/08/15 05:49:31;;;;;;;4.40;2.50;;;;;;;;;;5009226;28;20046;-40
2021/08/15 05:51:57;;;;;;;2.78;2.00;;;;;;;;;;5007058;28;20065;-38
2021/08/15 05:54:24;;;;;;;1.80;1.67;;;;;;;;;;4995131;28;20050;-39
2021/08/15 05:56:51;;;;;;;3.88;2.03;;;;;;;;;;5010676;28;20084;-39
2021/08/15 05:59:17;;;;;;;5.78;2.00;;;;;;;;;;5008695;28;20034;-38
2021/08/15 06:01:44;;;;;;;2.33;1.40;;;;;;;;;;4993323;28;20494;-39
2021/08/15 06:04:11;;;;;;;8.38;2.35;;;;;;;;;;5005510;28;20584;-40
2021/08/15 06:06:38;;;;;;;1.92;1.83;;;;;;;;;;4994458;28;20037;-40
2021/08/15 06:09:05;;;;;;;3.22;1.40;;;;;;;;;;4999727;28;20053;-39
2021/08/15 06:11:31;;;;;;;6.57;1.40;;;;;;;;;;5004713;28;20045;-39
2021/08/15 06:13:58;;;;;;;4.72;1.83;;;;;;;;;;4993099;28;20066;-39
2021/08/15 06:16:25;;;;;;;4.60;1.67;;;;;;;;;;5007264;28;20045;-39
2021/08/15 06:18:52;;;;;;;4.03;1.58;;;;;;;;;;5008089;28;20034;-39
2021/08/15 06:21:19;;;;;;;3.53;1.63;;;;;;;;;;4999760;28;20126;-39
2021/08/15 06:23:47;;;;;;;2.40;1.60;;;;;;;;;;5001880;28;20042;-39
2021/08/15 06:26:14;;;;;;;5.93;2.80;;;;;;;;;;5003414;28;20054;-38
2021/08/15 06:28:41;;;;;;;1.40;1.30;;;;;;;;;;5006269;28;20038;-39
2021/08/15 06:31:20;;;;;;;7.57;1.48;;;;;;;;;;5007662;28;20056;-39
2021/08/15 06:33:47;;;;;;;4.95;1.63;;;;;;;;;;5011665;28;20129;-39
2021/08/15 06:36:14;;;;;;;5.30;1.92;;;;;;;;;;5007553;28;20633;-40
2021/08/15 06:38:40;;;;;;;5.75;1.77;;;;;;;;;;4997575;28;20146;-38
2021/08/15 06:41:08;;;;;;;5.07;1.10;;;;;;;;;;5006935;28;20058;-39
2021/08/15 06:43:35;;;;;;;5.15;2.05;;;;;;;;;;5007954;28;20100;-40
2021/08/15 06:46:02;;;;;;;2.58;1.20;;;;;;;;;;4997294;28;20050;-40
2021/08/15 06:48:29;;;;;;;3.35;1.10;;;;;;;;;;5003701;28;20152;-39
2021/08/15 06:50:58;;;;;;;5.82;1.23;;;;;;;;;;5009435;28;20095;-40
2021/08/15 06:53:26;;;;;;;1.98;1.40;;;;;;;;;;5007716;28;20478;-41
2021/08/15 06:55:53;;;;;;;3.60;1.20;;;;;;;;;;5007796;28;20032;-40
2021/08/15 06:58:20;;;;;;;2.65;1.58;;;;;;;;;;5003501;28;20096;-39
2021/08/15 07:00:47;;;;;;;1.98;1.40;;;;;;;;;;4998564;28;20498;-39
2021/08/15 07:03:14;;;;;;;4.50;1.98;;;;;;;;;;5003308;28;20049;-40
2021/08/15 07:05:41;;;;;;;2.58;1.17;;;;;;;;;;5006667;28;20490;-38
2021/08/15 07:08:08;;;;;;;3.67;1.33;;;;;;;;;;5003235;28;20058;-41
2021/08/15 07:10:35;;;;;;;2.40;1.10;;;;;;;;;;5002050;28;20117;-40
2021/08/15 07:13:05;;;;;;;5.80;2.22;;;;;;;;;;5006994;28;20041;-39
2021/08/15 07:15:33;;;;;;;2.85;1.38;;;;;;;;;;5008406;28;20034;-42
2021/08/15 07:18:00;;;;;;;1.67;1.27;;;;;;;;;;5008418;28;20434;-40
2021/08/15 07:20:27;;;;;;;3.03;1.17;;;;;;;;;;4999929;28;20058;-40
2021/08/15 07:22:54;;;;;;;3.67;1.17;;;;;;;;;;5004398;28;20235;-38
2021/08/15 07:25:24;;;;;;;1.88;1.00;;;;;;;;;;5007399;28;20117;-39
2021/08/15 07:27:51;;;;;;;4.13;1.25;;;;;;;;;;4989623;28;20038;-39
2021/08/15 07:30:18;;;;;;;4.82;1.20;;;;;;;;;;5005730;28;20457;-39
2021/08/15 07:32:58;;;;;;;2.45;1.50;;;;;;;;;;4999341;28;20502;-41
2021/08/15 07:35:25;;;;;;;1.52;1.42;;;;;;;;;;5011888;28;20050;-40
2021/08/15 07:37:52;;;;;;;1.10;1.00;;;;;;;;;;5009695;28;20054;-39
2021/08/15 07:40:19;;;;;;;1.98;1.27;;;;;;;;;;5001908;28;20118;-39
2021/08/15 07:42:53;;;;;;;4.47;1.10;;;;;;;;;;5008850;28;20033;-39
2021/08/15 07:45:22;;;;;;;3.58;1.35;;;;;;;;;;5009835;28;20060;-42
2021/08/15 07:47:49;;;;;;;1.27;0.90;;;;;;;;;;5007206;28;20383;-39
2021/08/15 07:50:16;;;;;;;1.23;0.90;;;;;;;;;;5006831;28;20038;-39
2021/08/15 07:52:43;;;;;;;2.25;0.90;;;;;;;;;;5006011;28;20451;-40
2021/08/15 07:55:10;;;;;;;1.17;0.90;;;;;;;;;;5003545;28;20049;-41
2021/08/15 07:57:38;;;;;;;3.72;1.10;;;;;;;;;;5009114;28;20104;-39
2021/08/15 08:00:06;;;;;;;3.60;1.25;;;;;;;;;;5011137;28;20419;-40
2021/08/15 08:02:36;;;;;;;3.72;1.00;;;;;;;;;;5008298;28;20077;-39
2021/08/15 08:05:03;;;;;;;42.35;37.03;;;;;;;;;;5020895;28;20073;-40
2021/08/15 08:07:30;;;;;;;9.05;4.05;;;;;;;;;;5007822;28;20471;-40
2021/08/15 08:09:57;;;;;;;2.63;0.90;;;;;;;;;;5006708;28;20080;-41
2021/08/15 08:12:24;;;;;;;3.00;0.90;;;;;;;;;;5018176;28;20120;-41
2021/08/15 08:14:51;;;;;;;1.50;1.38;;;;;;;;;;5011505;28;20486;-41
2021/08/15 08:17:18;;;;;;;3.30;2.38;;;;;;;;;;5009981;28;20502;-42
2021/08/15 08:19:45;;;;;;;66.00;55.03;;;;;;;;;;5008557;28;20046;-42
2021/08/15 08:22:14;;;;;;;5.05;1.45;;;;;;;;;;5008675;28;20041;-44
2021/08/15 08:24:41;;;;;;;1.63;1.42;;;;;;;;;;5005629;28;20050;-43
2021/08/15 08:27:08;;;;;;;2.90;0.77;;;;;;;;;;5009323;28;20525;-40
2021/08/15 08:29:34;;;;;;;3.20;1.65;;;;;;;;;;4998590;28;20065;-43
2021/08/15 08:32:01;;;;;;;6.72;0.90;;;;;;;;;;4999073;28;20050;-42
2021/08/15 08:34:28;;;;;;;5.18;0.82;;;;;;;;;;5005951;28;20046;-42
2021/08/15 08:36:55;;;;;;;1.65;0.85;;;;;;;;;;4993259;28;20068;-41
2021/08/15 08:39:21;;;;;;;3.63;0.90;;;;;;;;;;5011595;28;20104;-40
2021/08/15 08:41:48;;;;;;;1.20;1.10;;;;;;;;;;5001166;28;20038;-41
2021/08/15 08:44:16;;;;;;;2.95;0.90;;;;;;;;;;5007544;28;20100;-42
2021/08/15 08:46:43;;;;;;;4.97;1.23;;;;;;;;;;5010944;28;20050;-40
2021/08/15 08:49:13;;;;;;;1.77;0.95;;;;;;;;;;4997958;28;20046;-43
2021/08/15 08:51:40;;;;;;;3.47;1.10;;;;;;;;;;5011257;28;20045;-42
2021/08/15 08:54:24;;;;;;;1.38;0.80;;;;;;;;;;5003198;28;20034;-42
2021/08/15 08:56:51;;;;;;;1.92;0.90;;;;;;;;;;5003942;28;20129;-39
2021/08/15 08:59:18;;;;;;;1.75;0.80;;;;;;;;;;5007117;28;20049;-40
2021/08/15 09:01:45;;;;;;;6.25;1.15;;;;;;;;;;5008176;28;20049;-43
2021/08/15 09:04:12;;;;;;;1.58;0.85;;;;;;;;;;5010528;28;20060;-41
2021/08/15 09:06:39;;;;;;;2.20;0.80;;;;;;;;;;5008621;28;20034;-42
2021/08/15 09:09:11;;;;;;;1.88;0.82;;;;;;;;;;5003109;28;20193;-40
2021/08/15 09:11:38;;;;;;;2.83;0.77;;;;;;;;;;5004142;28;20047;-41
2021/08/15 09:14:06;;;;;;;5.07;1.10;;;;;;;;;;5006072;28;20902;-41
2021/08/15 09:16:52;;;;;;;2.58;0.90;;;;;;;;;;5004311;28;20095;-43
2021/08/15 09:19:23;;;;;;;2.83;0.88;;;;;;;;;;5000109;28;20061;-41
2021/08/15 09:21:49;;;;;;;28.10;25.02;;;;;;;;;;5004158;28;20030;-39
2021/08/15 09:24:16;;;;;;;5.90;1.25;;;;;;;;;;5006394;28;20049;-41
2021/08/15 09:27:01;;;;;;;3.30;1.23;;;;;;;;;;5005906;28;20096;-43
2021/08/15 09:29:27;;;;;;;3.65;0.90;;;;;;;;;;5019849;28;20057;-41
2021/08/15 09:31:55;;;;;;;2.15;1.00;;;;;;;;;;5008322;28;20113;-42
2021/08/15 09:34:24;;;;;;;2.65;0.90;;;;;;;;;;5008079;28;20560;-40
2021/08/15 09:36:52;;;;;;;2.45;1.13;;;;;;;;;;5009173;28;20065;-40
2021/08/15 09:39:39;;;;;;;1.33;0.80;;;;;;;;;;5004648;28;20053;-40
2021/08/15 09:42:06;;;;;;;3.25;0.80;;;;;;;;;;5008777;28;20048;-40
2021/08/15 09:44:33;;;;;;;1.77;0.90;;;;;;;;;;5003078;28;20133;-43
2021/08/15 09:47:11;;;;;;;4.07;0.85;;;;;;;;;;4994889;28;20034;-42
2021/08/15 09:49:41;;;;;;;3.45;0.77;;;;;;;;;;4997546;28;20042;-41
2021/08/15 09:52:10;;;;;;;0.88;0.80;;;;;;;;;;5004575;28;20045;-41
2021/08/15 09:54:38;;;;;;;4.15;0.90;;;;;;;;;;5008743;28;20084;-42
2021/08/15 09:57:09;;;;;;;5.90;0.90;;;;;;;;;;5009902;28;20417;-40
2021/08/15 09:59:37;;;;;;;2.40;1.10;;;;;;;;;;5007284;28;20485;-41
2021/08/15 10:02:05;;;;;;;2.47;1.10;;;;;;;;;;5004550;28;20041;-40
2021/08/15 10:04:32;;;;;;;4.03;1.15;;;;;;;;;;5005178;28;20108;-41
2021/08/15 10:06:59;;;;;;;1.98;0.80;;;;;;;;;;5008775;28;20069;-41
2021/08/15 10:09:26;;;;;;;1.13;0.60;;;;;;;;;;5007510;28;20046;-56
2021/08/15 10:11:53;;;;;;;5.00;0.60;;;;;;;;;;5008597;28;20042;-56
2021/08/15 10:14:20;;;;;;;3.70;0.63;;;;;;;;;;5005378;28;20030;-56
2021/08/15 10:16:54;;;;;;;4.82;1.00;;;;;;;;;;5007408;28;20037;-56
2021/08/15 10:19:41;;;;;;;2.08;0.55;;;;;;;;;;5002616;28;20045;-56
2021/08/15 10:22:08;;;;;;;2.42;0.60;;;;;;;;;;5010125;28;20490;-56
2021/08/15 10:24:41;;;;;;;2.35;0.50;;;;;;;;;;4999067;28;20049;-57
2021/08/15 10:27:09;;;;;;;4.28;0.60;;;;;;;;;;4995595;28;20057;-56
2021/08/15 10:29:37;;;;;;;4.78;0.60;;;;;;;;;;5006618;28;20546;-56
2021/08/15 10:32:07;;;;;;;2.50;0.70;;;;;;;;;;5006397;28;20096;-57
2021/08/15 10:34:49;;;;;;;1.75;0.60;;;;;;;;;;5001531;28;20038;-56
2021/08/15 10:37:24;;;;;;;3.63;0.60;;;;;;;;;;5004775;28;20042;-57
2021/08/15 10:39:53;;;;;;;2.50;0.60;;;;;;;;;;5005355;28;20050;-57
2021/08/15 10:42:37;;;;;;;4.00;0.90;;;;;;;;;;5004669;28;20042;-56
2021/08/15 10:45:31;;;;;;;2.97;1.02;;;;;;;;;;5005788;28;20048;-57
2021/08/15 10:48:12;;;;;;;3.53;0.60;;;;;;;;;;5004656;28;20066;-57
2021/08/15 10:50:42;;;;;;;0.50;0.40;;;;;;;;;;5007355;28;20037;-56
2021/08/15 10:53:27;;;;;;;3.83;0.70;;;;;;;;;;5004803;28;20038;-56
2021/08/15 10:55:55;;;;;;;20.65;15.23;;;;;;;;;;5008516;28;20045;-56
2021/08/15 10:58:42;;;;;;;4.15;1.95;;;;;;;;;;5004948;28;20564;-56
2021/08/15 11:01:13;;;;;;;3.53;0.60;;;;;;;;;;5004480;28;20718;-56
2021/08/15 11:03:46;;;;;;;2.25;0.75;;;;;;;;;;5003305;28;20049;-56
2021/08/15 11:06:32;;;;;;;2.25;0.47;;;;;;;;;;5007263;28;20381;-56
2021/08/15 11:08:59;;;;;;;8.43;4.13;;;;;;;;;;5009852;28;20048;-56
2021/08/15 11:11:31;;;;;;;8.15;3.40;;;;;;;;;;5008568;28;20050;-56
2021/08/15 11:14:16;;;;;;;10.60;1.00;;;;;;;;;;5006417;28;20084;-56
2021/08/15 11:16:47;;;;;;;5.40;0.57;;;;;;;;;;5003384;28;20038;-56
2021/08/15 11:19:14;;;;;;;3.22;0.60;;;;;;;;;;5009433;28;20305;-56
2021/08/15 11:21:59;;;;;;;6.78;0.70;;;;;;;;;;5003189;28;20069;-55
2021/08/15 11:24:26;;;;;;;6.25;0.60;;;;;;;;;;5007065;28;20064;-56
2021/08/15 11:26:54;;;;;;;5.07;0.50;;;;;;;;;;5004281;28;20089;-56
2021/08/15 11:29:21;;;;;;;1.77;0.82;;;;;;;;;;5000740;28;20057;-54
2021/08/15 11:31:48;;;;;;;2.47;0.57;;;;;;;;;;5006550;28;20045;-56
2021/08/15 11:34:15;;;;;;;2.10;0.70;;;;;;;;;;5011797;28;20048;-57
2021/08/15 11:36:42;;;;;;;4.95;0.47;;;;;;;;;;5004205;28;20068;-56
2021/08/15 11:39:09;;;;;;;5.90;1.33;;;;;;;;;;5005271;28;20589;-56
2021/08/15 11:41:36;;;;;;;1.67;0.57;;;;;;;;;;4996136;28;20443;-56
2021/08/15 11:44:03;;;;;;;1.52;0.50;;;;;;;;;;4994699;28;20045;-57
2021/08/15 11:46:30;;;;;;;3.03;0.60;;;;;;;;;;5007049;28;20550;-56
2021/08/15 11:48:57;;;;;;;1.27;0.50;;;;;;;;;;5010487;28;20042;-56
2021/08/15 11:51:24;;;;;;;5.40;0.50;;;;;;;;;;5010564;28;20046;-56
2021/08/15 11:53:50;;;;;;;5.28;0.50;;;;;;;;;;5013250;28;20045;-56
2021/08/15 11:56:21;;;;;;;4.97;0.93;;;;;;;;;;5008719;28;20671;-56
2021/08/15 11:58:57;;;;;;;3.60;0.60;;;;;;;;;;4997313;28;20429;-56
2021/08/15 12:01:27;;;;;;;3.60;0.70;;;;;;;;;;5007010;28;20472;-56
2021/08/15 12:03:55;;;;;;;5.03;0.80;;;;;;;;;;5002514;28;20453;-56
2021/08/15 12:06:22;;;;;;;5.90;0.77;;;;;;;;;;5018410;28;20038;-56
2021/08/15 12:08:49;;;;;;;1.83;0.50;;;;;;;;;;5004812;28;20046;-56
2021/08/15 12:11:27;;;;;;;4.75;0.60;;;;;;;;;;4999638;28;20053;-56
2021/08/15 12:14:08;;;;;;;4.53;0.70;;;;;;;;;;5011106;28;20052;-55
2021/08/15 12:16:36;;;;;;;6.35;0.98;;;;;;;;;;5007273;28;20096;-56
2021/08/15 12:19:05;;;;;;;5.78;0.70;;;;;;;;;;5002525;28;20049;-56
2021/08/15 12:21:33;;;;;;;6.40;0.88;;;;;;;;;;5010298;28;20128;-55
2021/08/15 12:24:04;;;;;;;2.60;0.60;;;;;;;;;;5005936;28;20045;-56
2021/08/15 12:26:33;;;;;;;2.75;0.85;;;;;;;;;;5009281;28;20050;-56
2021/08/15 12:29:03;;;;;;;3.75;0.60;;;;;;;;;;5010731;28;20037;-56
2021/08/15 12:31:31;;;;;;;2.30;0.60;;;;;;;;;;5011431;28;20390;-56
2021/08/15 12:34:05;;;;;;;7.88;0.60;;;;;;;;;;5011857;28;20060;-55
2021/08/15 12:36:39;;;;;;;5.93;0.68;;;;;;;;;;5005626;28;20036;-56
2021/08/15 12:39:06;;;;;;;4.80;1.00;;;;;;;;;;5008897;28;20046;-56
2021/08/15 12:41:51;;;;;;;3.40;0.50;;;;;;;;;;5003760;28;20125;-56
2021/08/15 12:44:19;;;;;;;5.03;0.63;;;;;;;;;;5000489;28;20493;-56
2021/08/15 12:46:56;;;;;;;2.00;0.70;;;;;;;;;;5003819;28;20038;-56
2021/08/15 12:49:30;;;;;;;6.78;0.70;;;;;;;;;;5007342;28;20129;-55
2021/08/15 12:52:10;;;;;;;6.40;1.00;;;;;;;;;;5005760;28;20049;-56
2021/08/15 12:54:57;;;;;;;2.17;0.60;;;;;;;;;;5007699;28;20469;-56
2021/08/15 12:57:24;;;;;;;2.58;0.60;;;;;;;;;;5008751;28;20045;-56
2021/08/15 12:59:51;;;;;;;2.78;0.60;;;;;;;;;;5002839;28;20089;-55
2021/08/15 13:02:17;;;;;;;2.83;0.52;;;;;;;;;;5011518;28;20046;-56
2021/08/15 13:04:44;;;;;;;2.13;0.57;;;;;;;;;;5010480;28;20088;-56
2021/08/15 13:07:11;;;;;;;9.07;1.13;;;;;;;;;;5007286;28;20045;-56
2021/08/15 13:09:38;;;;;;;2.85;0.70;;;;;;;;;;5007719;28;20074;-56
2021/08/15 13:12:05;;;;;;;1.83;0.50;;;;;;;;;;5008535;28;20038;-56
2021/08/15 13:14:32;;;;;;;4.43;0.77;;;;;;;;;;5007260;28;20065;-55
2021/08/15 13:17:01;;;;;;;2.35;0.80;;;;;;;;;;5010197;28;20048;-56
2021/08/15 13:19:28;;;;;;;2.83;0.60;;;;;;;;;;5004079;28;20486;-56
2021/08/15 13:21:55;;;;;;;4.38;0.50;;;;;;;;;;5008524;28;20489;-56
2021/08/15 13:24:22;;;;;;;2.20;0.50;;;;;;;;;;5009638;28;20129;-56
2021/08/15 13:26:48;;;;;;;7.03;0.60;;;;;;;;;;5013552;28;20038;-56
2021/08/15 13:29:15;;;;;;;8.07;0.75;;;;;;;;;;5001168;28;20029;-56
2021/08/15 13:31:42;;;;;;;3.97;0.70;;;;;;;;;;5010404;28;20513;-56
2021/08/15 13:34:09;;;;;;;4.00;0.70;;;;;;;;;;5007226;28;20108;-55
2021/08/15 13:36:35;;;;;;;3.05;0.57;;;;;;;;;;5015591;28;20042;-56
2021/08/15 13:39:02;;;;;;;5.18;0.50;;;;;;;;;;5008914;28;20061;-56
2021/08/15 13:41:29;;;;;;;6.82;0.60;;;;;;;;;;5004298;28;20044;-56
2021/08/15 13:43:56;;;;;;;4.43;0.70;;;;;;;;;;5012452;28;20038;-56
2021/08/15 13:46:22;;;;;;;2.65;0.60;;;;;;;;;;5007597;28;20053;-55
2021/08/15 13:48:49;;;;;;;3.95;0.70;;;;;;;;;;5008565;28;20037;-56
2021/08/15 13:51:16;;;;;;;2.83;0.63;;;;;;;;;;5007725;28;20120;-56
2021/08/15 13:53:43;;;;;;;7.40;0.93;;;;;;;;;;5009099;28;20117;-56
2021/08/15 13:56:10;;;;;;;6.68;0.70;;;;;;;;;;5007585;28;20113;-56
2021/08/15 13:58:37;;;;;;;5.40;0.70;;;;;;;;;;5006477;28;20370;-56
2021/08/15 14:01:03;;;;;;;1.55;0.57;;;;;;;;;;5004429;28;20034;-56
2021/08/15 14:03:32;;;;;;;5.15;0.60;;;;;;;;;;5003489;28;20053;-55
2021/08/15 14:06:02;;;;;;;8.63;1.02;;;;;;;;;;4998193;28;20048;-56
2021/08/15 14:08:29;;;;;;;5.40;0.55;;;;;;;;;;5009144;28;20069;-56
2021/08/15 14:10:57;;;;;;;5.93;0.68;;;;;;;;;;5004633;28;20133;-56
2021/08/15 14:13:25;;;;;;;4.20;1.10;;;;;;;;;;5006858;28;20076;-56
2021/08/15 14:15:52;;;;;;;3.50;0.80;;;;;;;;;;5005129;28;20356;-56
2021/08/15 14:18:21;;;;;;;7.90;1.15;;;;;;;;;;5002998;28;20041;-56
2021/08/15 14:20:48;;;;;;;4.10;0.68;;;;;;;;;;5002892;28;20074;-56
2021/08/15 14:23:15;;;;;;;5.32;0.82;;;;;;;;;;5006120;28;20049;-56
2021/08/15 14:25:42;;;;;;;4.70;0.60;;;;;;;;;;5009111;28;20049;-55
2021/08/15 14:28:09;;;;;;;5.25;1.02;;;;;;;;;;5004521;28;20537;-56
2021/08/15 14:30:36;;;;;;;4.90;0.60;;;;;;;;;;4995238;28;20503;-56
2021/08/15 14:33:02;;;;;;;7.03;1.30;;;;;;;;;;4998795;28;20375;-56
2021/08/15 14:35:30;;;;;;;2.50;0.77;;;;;;;;;;5000764;28;20036;-56
2021/08/15 14:37:57;;;;;;;7.68;1.13;;;;;;;;;;5002280;28;20088;-55
2021/08/15 14:40:24;;;;;;;6.47;0.70;;;;;;;;;;5011105;28;20092;-56
2021/08/15 14:42:52;;;;;;;3.25;0.90;;;;;;;;;;5000341;28;20049;-56
2021/08/15 14:45:19;;;;;;;3.55;0.70;;;;;;;;;;5000627;28;20125;-56
2021/08/15 14:47:46;;;;;;;2.75;0.60;;;;;;;;;;5005642;28;20056;-54
2021/08/15 14:50:14;;;;;;;4.25;1.10;;;;;;;;;;5010352;28;20046;-55